This is the latest recevied weather packets stored in our database for station/object G7GQA-4. If no packets are shown the sender has not sent any weather packets the latest 10 day(s).
| Time | Temp. | Humidity | Pressure | Rain* | Wind** | Luminosity | Snow |
|---|---|---|---|---|---|---|---|
| 1778312719 | 17.22° C | 60% | - | 0 mm | - | 351 W/m² | - |
| 1778312119 | 16.11° C | 61% | - | 0 mm | - | 296 W/m² | - |
| 1778311519 | 15.56° C | 65% | - | 0 mm | - | 262 W/m² | - |
| 1778310919 | 16.11° C | 66% | - | 0 mm | - | 226 W/m² | - |
| 1778310319 | 15° C | 67% | - | 0 mm | - | 234 W/m² | - |
| 1778309720 | 13.89° C | 73% | - | 0 mm | - | 177 W/m² | - |
| 1778309120 | 13.89° C | 73% | - | 0 mm | - | 140 W/m² | - |
| 1778308519 | 13.33° C | 75% | - | 0 mm | - | 116 W/m² | - |
| 1778307919 | 12.22° C | 78% | - | 0 mm | - | 112 W/m² | - |
| 1778307319 | 11.67° C | 81% | - | 0 mm | - | 89 W/m² | - |
| 1778306720 | 11.11° C | 82% | - | 0 mm | - | 81 W/m² | - |
| 1778306119 | 10.56° C | 83% | - | 0 mm | - | 72 W/m² | - |
| 1778305519 | 9.44° C | 86% | - | 0 mm | - | 68 W/m² | - |
| 1778304919 | 8.89° C | 88% | - | 0 mm | - | 57 W/m² | - |
| 1778304319 | 8.33° C | 91% | - | 0 mm | - | 49 W/m² | - |
| 1778303719 | 7.78° C | 91% | - | 0 mm | - | 35 W/m² | - |
| 1778303119 | 7.78° C | 92% | - | 0 mm | - | 26 W/m² | - |
| 1778302519 | 7.78° C | 92% | - | 0 mm | - | 17 W/m² | - |
| 1778301919 | 7.78° C | 92% | - | 0 mm | - | 11 W/m² | - |
| 1778301319 | 7.78° C | 92% | - | 0 mm | - | 6 W/m² | - |
| 1778300719 | 8.33° C | 91% | - | 0 mm | - | 3 W/m² | - |
| 1778300119 | 8.33° C | 91% | - | 0 mm | - | 1 W/m² | - |
| 1778299519 | 8.33° C | 91% | - | 0 mm | - | 0 W/m² | - |
| 1778298919 | 8.89° C | 91% | - | 0 mm | - | 0 W/m² | - |
| 1778298319 | 8.33° C | 92% | - | 0 mm | - | 0 W/m² | - |
* Rain latest hour (hover to see other rain measurements)
** Current wind speed in m/s (hover to see current wind gust speed)